sensor_id;sensor_type;location;lat;lon;timestamp;pressure;altitude;pressure_sealevel;temperature;humidity
54329;BME280;40710;51.120;13.136;2024-01-15T00:01:10;97559.75;;;3.32;62.97
54329;BME280;40710;51.120;13.136;2024-01-15T00:03:34;97551.81;;;3.67;62.27
54329;BME280;40710;51.120;13.136;2024-01-15T00:05:59;97551.97;;;2.99;64.13
54329;BME280;40710;51.120;13.136;2024-01-15T00:08:23;97555.25;;;3.52;63.42
54329;BME280;40710;51.120;13.136;2024-01-15T00:10:48;97573.19;;;3.56;63.34
54329;BME280;40710;51.120;13.136;2024-01-15T00:13:12;97553.16;;;3.09;64.76
54329;BME280;40710;51.120;13.136;2024-01-15T00:15:37;97554.06;;;3.08;64.72
54329;BME280;40710;51.120;13.136;2024-01-15T00:18:01;97544.44;;;3.10;63.79
54329;BME280;40710;51.120;13.136;2024-01-15T00:20:26;97547.06;;;3.59;62.36
54329;BME280;40710;51.120;13.136;2024-01-15T00:22:51;97535.75;;;2.60;65.15
54329;BME280;40710;51.120;13.136;2024-01-15T00:25:15;97534.63;;;3.49;63.58
54329;BME280;40710;51.120;13.136;2024-01-15T00:27:40;97540.84;;;2.79;64.19
54329;BME280;40710;51.120;13.136;2024-01-15T00:30:04;97540.63;;;3.17;63.34
54329;BME280;40710;51.120;13.136;2024-01-15T00:32:29;97537.09;;;3.18;63.35
54329;BME280;40710;51.120;13.136;2024-01-15T00:34:54;97533.59;;;3.19;63.51
54329;BME280;40710;51.120;13.136;2024-01-15T00:37:18;97519.59;;;3.22;62.90
54329;BME280;40710;51.120;13.136;2024-01-15T00:39:43;97526.44;;;3.40;62.04
54329;BME280;40710;51.120;13.136;2024-01-15T00:42:07;97532.31;;;3.60;62.61
54329;BME280;40710;51.120;13.136;2024-01-15T00:44:32;97527.78;;;3.48;62.44
54329;BME280;40710;51.120;13.136;2024-01-15T00:46:57;97518.28;;;3.63;61.65
54329;BME280;40710;51.120;13.136;2024-01-15T00:49:21;97516.63;;;3.30;63.35
54329;BME280;40710;51.120;13.136;2024-01-15T00:51:47;97519.53;;;3.24;62.90
54329;BME280;40710;51.120;13.136;2024-01-15T00:54:11;97527.41;;;3.22;63.61
54329;BME280;40710;51.120;13.136;2024-01-15T00:56:36;97516.31;;;3.02;63.67
54329;BME280;40710;51.120;13.136;2024-01-15T00:59:01;97523.94;;;2.37;65.37
54329;BME280;40710;51.120;13.136;2024-01-15T01:01:26;97505.13;;;3.34;63.26
54329;BME280;40710;51.120;13.136;2024-01-15T01:03:50;97497.31;;;3.02;62.69
54329;BME280;40710;51.120;13.136;2024-01-15T01:06:15;97495.50;;;2.87;63.47
54329;BME280;40710;51.120;13.136;2024-01-15T01:08:39;97504.03;;;2.55;64.86
54329;BME280;40710;51.120;13.136;2024-01-15T01:11:04;97494.84;;;3.32;62.78
54329;BME280;40710;51.120;13.136;2024-01-15T01:13:28;97480.72;;;4.00;62.82
54329;BME280;40710;51.120;13.136;2024-01-15T01:15:53;97496.09;;;3.25;62.98
54329;BME280;40710;51.120;13.136;2024-01-15T01:18:18;97487.16;;;2.64;64.49
54329;BME280;40710;51.120;13.136;2024-01-15T01:20:42;97486.84;;;3.03;63.09
54329;BME280;40710;51.120;13.136;2024-01-15T01:23:07;97464.19;;;3.23;62.95
54329;BME280;40710;51.120;13.136;2024-01-15T01:25:31;97483.19;;;3.39;61.75
54329;BME280;40710;51.120;13.136;2024-01-15T01:27:56;97488.81;;;2.82;63.62
54329;BME280;40710;51.120;13.136;2024-01-15T01:30:20;97470.72;;;3.46;62.37
54329;BME280;40710;51.120;13.136;2024-01-15T01:32:45;97485.72;;;3.57;62.28
54329;BME280;40710;51.120;13.136;2024-01-15T01:35:09;97484.03;;;2.57;64.36
54329;BME280;40710;51.120;13.136;2024-01-15T01:37:34;97479.31;;;2.99;64.05
54329;BME280;40710;51.120;13.136;2024-01-15T01:39:59;97468.63;;;3.05;62.75
54329;BME280;40710;51.120;13.136;2024-01-15T01:42:23;97484.03;;;2.91;62.97
54329;BME280;40710;51.120;13.136;2024-01-15T01:44:48;97462.91;;;3.62;61.54
54329;BME280;40710;51.120;13.136;2024-01-15T01:47:14;97467.22;;;3.47;61.79
54329;BME280;40710;51.120;13.136;2024-01-15T01:49:39;97475.81;;;3.16;62.06
54329;BME280;40710;51.120;13.136;2024-01-15T01:52:05;97462.78;;;3.33;60.86
54329;BME280;40710;51.120;13.136;2024-01-15T01:54:32;97461.75;;;3.36;61.83
54329;BME280;40710;51.120;13.136;2024-01-15T01:56:57;97454.44;;;2.95;61.48
54329;BME280;40710;51.120;13.136;2024-01-15T01:59:23;97459.72;;;3.09;62.25
54329;BME280;40710;51.120;13.136;2024-01-15T02:01:48;97460.50;;;3.27;61.75
54329;BME280;40710;51.120;13.136;2024-01-15T02:04:14;97455.50;;;2.91;61.88
54329;BME280;40710;51.120;13.136;2024-01-15T02:06:39;97441.56;;;3.25;61.14
54329;BME280;40710;51.120;13.136;2024-01-15T02:09:04;97447.69;;;3.24;62.35
54329;BME280;40710;51.120;13.136;2024-01-15T02:11:29;97478.94;;;2.89;62.66
54329;BME280;40710;51.120;13.136;2024-01-15T02:13:54;97464.59;;;2.82;62.25
54329;BME280;40710;51.120;13.136;2024-01-15T02:16:18;97459.09;;;2.72;62.95
54329;BME280;40710;51.120;13.136;2024-01-15T02:18:44;97454.88;;;3.67;61.88
54329;BME280;40710;51.120;13.136;2024-01-15T02:21:09;97466.81;;;2.56;62.81
54329;BME280;40710;51.120;13.136;2024-01-15T02:23:35;97453.16;;;2.53;63.00
54329;BME280;40710;51.120;13.136;2024-01-15T02:25:59;97460.41;;;3.29;62.83
54329;BME280;40710;51.120;13.136;2024-01-15T02:28:24;97444.50;;;3.19;60.70
54329;BME280;40710;51.120;13.136;2024-01-15T02:30:48;97468.78;;;2.69;62.93
54329;BME280;40710;51.120;13.136;2024-01-15T02:33:13;97453.28;;;3.16;61.50
54329;BME280;40710;51.120;13.136;2024-01-15T02:35:37;97457.06;;;3.11;61.98
54329;BME280;40710;51.120;13.136;2024-01-15T02:38:03;97454.78;;;3.20;62.22
54329;BME280;40710;51.120;13.136;2024-01-15T02:40:28;97451.84;;;2.95;61.75
54329;BME280;40710;51.120;13.136;2024-01-15T02:42:52;97448.06;;;2.84;62.76
54329;BME280;40710;51.120;13.136;2024-01-15T02:45:17;97446.19;;;3.20;61.24
54329;BME280;40710;51.120;13.136;2024-01-15T02:47:41;97447.19;;;2.51;61.66
54329;BME280;40710;51.120;13.136;2024-01-15T02:50:06;97437.47;;;3.05;60.31
54329;BME280;40710;51.120;13.136;2024-01-15T02:52:31;97442.66;;;2.38;62.66
54329;BME280;40710;51.120;13.136;2024-01-15T02:54:55;97464.78;;;2.28;62.50
54329;BME280;40710;51.120;13.136;2024-01-15T02:57:20;97438.44;;;2.87;61.25
54329;BME280;40710;51.120;13.136;2024-01-15T02:59:44;97436.16;;;2.80;62.03
54329;BME280;40710;51.120;13.136;2024-01-15T03:02:09;97445.66;;;2.13;62.74
54329;BME280;40710;51.120;13.136;2024-01-15T03:04:33;97462.88;;;2.82;62.48
54329;BME280;40710;51.120;13.136;2024-01-15T03:06:58;97457.16;;;2.25;62.47
54329;BME280;40710;51.120;13.136;2024-01-15T03:09:22;97453.28;;;2.16;63.29
54329;BME280;40710;51.120;13.136;2024-01-15T03:11:47;97458.25;;;2.03;62.68
54329;BME280;40710;51.120;13.136;2024-01-15T03:14:13;97459.00;;;2.23;61.96
54329;BME280;40710;51.120;13.136;2024-01-15T03:16:38;97449.75;;;2.68;61.57
54329;BME280;40710;51.120;13.136;2024-01-15T03:19:02;97448.03;;;3.34;60.13
54329;BME280;40710;51.120;13.136;2024-01-15T03:21:27;97460.03;;;2.01;63.64
54329;BME280;40710;51.120;13.136;2024-01-15T03:23:51;97454.25;;;2.14;63.43
54329;BME280;40710;51.120;13.136;2024-01-15T03:26:16;97455.59;;;2.56;63.06
54329;BME280;40710;51.120;13.136;2024-01-15T03:28:40;97469.47;;;2.72;62.08
54329;BME280;40710;51.120;13.136;2024-01-15T03:31:05;97479.72;;;2.05;64.96
54329;BME280;40710;51.120;13.136;2024-01-15T03:33:29;97474.13;;;1.96;65.25
54329;BME280;40710;51.120;13.136;2024-01-15T03:35:54;97469.09;;;2.10;64.86
54329;BME280;40710;51.120;13.136;2024-01-15T03:38:18;97466.22;;;2.34;64.58
54329;BME280;40710;51.120;13.136;2024-01-15T03:40:43;97475.13;;;1.76;65.14
54329;BME280;40710;51.120;13.136;2024-01-15T03:43:08;97475.59;;;2.01;64.64
54329;BME280;40710;51.120;13.136;2024-01-15T03:45:32;97485.13;;;2.01;64.25
54329;BME280;40710;51.120;13.136;2024-01-15T03:47:57;97474.75;;;2.01;65.16
54329;BME280;40710;51.120;13.136;2024-01-15T03:50:21;97474.81;;;1.82;64.98
54329;BME280;40710;51.120;13.136;2024-01-15T03:52:46;97496.16;;;1.68;65.36
54329;BME280;40710;51.120;13.136;2024-01-15T03:55:10;97459.91;;;2.04;64.67
54329;BME280;40710;51.120;13.136;2024-01-15T03:57:35;97457.44;;;1.84;64.90
54329;BME280;40710;51.120;13.136;2024-01-15T03:59:59;97432.59;;;1.80;64.21
54329;BME280;40710;51.120;13.136;2024-01-15T04:02:24;97463.78;;;2.13;64.26
54329;BME280;40710;51.120;13.136;2024-01-15T04:04:48;97445.47;;;1.81;64.38
54329;BME280;40710;51.120;13.136;2024-01-15T04:07:13;97462.41;;;2.06;62.82
54329;BME280;40710;51.120;13.136;2024-01-15T04:09:37;97465.72;;;1.73;63.53
54329;BME280;40710;51.120;13.136;2024-01-15T04:12:02;97522.88;;;1.51;64.53
54329;BME280;40710;51.120;13.136;2024-01-15T04:14:27;97468.84;;;1.43;64.38
54329;BME280;40710;51.120;13.136;2024-01-15T04:16:51;97465.75;;;2.08;62.73
54329;BME280;40710;51.120;13.136;2024-01-15T04:19:16;97459.97;;;2.03;63.77
54329;BME280;40710;51.120;13.136;2024-01-15T04:21:40;97469.50;;;2.20;63.22
54329;BME280;40710;51.120;13.136;2024-01-15T04:24:05;97461.25;;;1.94;62.90
54329;BME280;40710;51.120;13.136;2024-01-15T04:26:30;97452.13;;;2.73;61.39
54329;BME280;40710;51.120;13.136;2024-01-15T04:28:54;97465.06;;;1.87;62.67
54329;BME280;40710;51.120;13.136;2024-01-15T04:31:23;97458.13;;;3.07;64.20
54329;BME280;40710;51.120;13.136;2024-01-15T04:33:48;97469.53;;;3.20;60.30
54329;BME280;40710;51.120;13.136;2024-01-15T04:36:12;97447.97;;;2.70;59.92
54329;BME280;40710;51.120;13.136;2024-01-15T04:38:37;97440.28;;;2.84;59.23
54329;BME280;40710;51.120;13.136;2024-01-15T04:41:01;97437.22;;;3.10;59.67
54329;BME280;40710;51.120;13.136;2024-01-15T04:43:26;97434.44;;;3.45;59.94
54329;BME280;40710;51.120;13.136;2024-01-15T04:45:50;97473.50;;;2.60;59.50
54329;BME280;40710;51.120;13.136;2024-01-15T04:48:15;97454.63;;;2.41;60.64
54329;BME280;40710;51.120;13.136;2024-01-15T04:50:39;97444.63;;;2.84;59.67
54329;BME280;40710;51.120;13.136;2024-01-15T04:53:04;97436.94;;;2.82;59.86
54329;BME280;40710;51.120;13.136;2024-01-15T04:55:29;97433.66;;;2.45;60.80
54329;BME280;40710;51.120;13.136;2024-01-15T04:57:53;97471.59;;;1.77;61.82
54329;BME280;40710;51.120;13.136;2024-01-15T05:00:18;97455.63;;;1.86;61.54
54329;BME280;40710;51.120;13.136;2024-01-15T05:02:42;97454.81;;;1.66;62.03
54329;BME280;40710;51.120;13.136;2024-01-15T05:05:07;97459.81;;;1.88;61.69
54329;BME280;40710;51.120;13.136;2024-01-15T05:07:31;97464.41;;;1.64;62.00
54329;BME280;40710;51.120;13.136;2024-01-15T05:09:56;97456.69;;;2.17;61.45
54329;BME280;40710;51.120;13.136;2024-01-15T05:12:20;97483.47;;;1.63;62.93
54329;BME280;40710;51.120;13.136;2024-01-15T05:14:45;97452.94;;;1.87;61.60
54329;BME280;40710;51.120;13.136;2024-01-15T05:17:09;97459.44;;;2.14;61.74
54329;BME280;40710;51.120;13.136;2024-01-15T05:19:34;97456.06;;;2.46;61.64
54329;BME280;40710;51.120;13.136;2024-01-15T05:21:59;97449.38;;;2.07;61.92
54329;BME280;40710;51.120;13.136;2024-01-15T05:24:23;97457.66;;;1.62;62.16
54329;BME280;40710;51.120;13.136;2024-01-15T05:26:48;97445.53;;;2.83;60.45
54329;BME280;40710;51.120;13.136;2024-01-15T05:29:12;97433.75;;;1.74;62.15
54329;BME280;40710;51.120;13.136;2024-01-15T05:31:37;97456.50;;;1.67;62.28
54329;BME280;40710;51.120;13.136;2024-01-15T05:34:01;97452.72;;;1.75;62.00
54329;BME280;40710;51.120;13.136;2024-01-15T05:36:26;97450.47;;;2.03;62.31
54329;BME280;40710;51.120;13.136;2024-01-15T05:38:50;97457.31;;;2.04;62.04
54329;BME280;40710;51.120;13.136;2024-01-15T05:41:15;97442.22;;;1.95;62.04
54329;BME280;40710;51.120;13.136;2024-01-15T05:43:39;97456.06;;;1.77;61.70
54329;BME280;40710;51.120;13.136;2024-01-15T05:46:04;97440.28;;;1.64;62.23
54329;BME280;40710;51.120;13.136;2024-01-15T05:48:29;97450.47;;;2.03;61.68
54329;BME280;40710;51.120;13.136;2024-01-15T05:50:53;97428.94;;;2.19;61.29
54329;BME280;40710;51.120;13.136;2024-01-15T05:53:18;97429.13;;;1.81;61.02
54329;BME280;40710;51.120;13.136;2024-01-15T05:55:42;97429.50;;;2.08;61.04
54329;BME280;40710;51.120;13.136;2024-01-15T05:58:07;97445.03;;;2.25;61.23
54329;BME280;40710;51.120;13.136;2024-01-15T06:00:31;97439.91;;;1.89;62.01
54329;BME280;40710;51.120;13.136;2024-01-15T06:02:57;97431.72;;;2.16;61.29
54329;BME280;40710;51.120;13.136;2024-01-15T06:05:22;97443.25;;;1.91;61.94
54329;BME280;40710;51.120;13.136;2024-01-15T06:07:46;97449.91;;;1.79;61.41
54329;BME280;40710;51.120;13.136;2024-01-15T06:10:11;97441.75;;;1.87;61.72
54329;BME280;40710;51.120;13.136;2024-01-15T06:12:35;97428.44;;;1.95;61.57
54329;BME280;40710;51.120;13.136;2024-01-15T06:15:00;97417.63;;;2.55;59.78
54329;BME280;40710;51.120;13.136;2024-01-15T06:17:24;97430.47;;;1.70;60.95
54329;BME280;40710;51.120;13.136;2024-01-15T06:19:49;97432.41;;;2.19;59.84
54329;BME280;40710;51.120;13.136;2024-01-15T06:22:13;97427.63;;;1.75;60.74
54329;BME280;40710;51.120;13.136;2024-01-15T06:24:38;97413.31;;;2.20;60.62
54329;BME280;40710;51.120;13.136;2024-01-15T06:27:02;97426.75;;;1.94;61.25
54329;BME280;40710;51.120;13.136;2024-01-15T06:29:28;97402.19;;;2.36;60.71
54329;BME280;40710;51.120;13.136;2024-01-15T06:31:52;97406.41;;;2.03;60.38
54329;BME280;40710;51.120;13.136;2024-01-15T06:34:17;97411.75;;;1.83;60.33
54329;BME280;40710;51.120;13.136;2024-01-15T06:36:41;97420.28;;;2.20;60.74
54329;BME280;40710;51.120;13.136;2024-01-15T06:39:06;97426.00;;;2.09;60.68
54329;BME280;40710;51.120;13.136;2024-01-15T06:41:30;97427.97;;;2.72;60.45
54329;BME280;40710;51.120;13.136;2024-01-15T06:43:55;97402.28;;;2.83;59.27
54329;BME280;40710;51.120;13.136;2024-01-15T06:46:21;97426.97;;;1.89;60.07
54329;BME280;40710;51.120;13.136;2024-01-15T06:48:45;97399.34;;;2.07;59.85
54329;BME280;40710;51.120;13.136;2024-01-15T06:51:10;97405.19;;;2.11;60.65
54329;BME280;40710;51.120;13.136;2024-01-15T06:53:34;97406.41;;;2.03;60.68
54329;BME280;40710;51.120;13.136;2024-01-15T06:55:59;97392.56;;;2.71;59.90
54329;BME280;40710;51.120;13.136;2024-01-15T06:58:24;97414.72;;;1.39;61.20
54329;BME280;40710;51.120;13.136;2024-01-15T07:00:48;97425.13;;;1.91;60.51
54329;BME280;40710;51.120;13.136;2024-01-15T07:03:13;97417.66;;;1.67;61.01
54329;BME280;40710;51.120;13.136;2024-01-15T07:05:37;97448.22;;;2.31;60.06
54329;BME280;40710;51.120;13.136;2024-01-15T07:08:02;97439.69;;;1.76;60.99
54329;BME280;40710;51.120;13.136;2024-01-15T07:10:26;97425.44;;;2.20;60.65
54329;BME280;40710;51.120;13.136;2024-01-15T07:12:51;97453.75;;;1.53;60.93
54329;BME280;40710;51.120;13.136;2024-01-15T07:15:15;97431.09;;;1.93;60.33
54329;BME280;40710;51.120;13.136;2024-01-15T07:17:40;97440.00;;;1.87;60.56
54329;BME280;40710;51.120;13.136;2024-01-15T07:20:07;97439.31;;;1.84;60.01
54329;BME280;40710;51.120;13.136;2024-01-15T07:22:32;97425.09;;;2.43;58.60
54329;BME280;40710;51.120;13.136;2024-01-15T07:24:56;97433.91;;;2.06;60.02
54329;BME280;40710;51.120;13.136;2024-01-15T07:27:21;97428.41;;;1.60;60.92
54329;BME280;40710;51.120;13.136;2024-01-15T07:29:45;97436.09;;;1.79;60.76
54329;BME280;40710;51.120;13.136;2024-01-15T07:32:10;97459.88;;;2.39;59.29
54329;BME280;40710;51.120;13.136;2024-01-15T07:34:34;97439.63;;;1.78;60.69
54329;BME280;40710;51.120;13.136;2024-01-15T07:36:59;97435.13;;;1.99;60.42
54329;BME280;40710;51.120;13.136;2024-01-15T07:39:23;97457.28;;;2.39;59.77
54329;BME280;40710;51.120;13.136;2024-01-15T07:41:49;97466.41;;;1.77;60.05
54329;BME280;40710;51.120;13.136;2024-01-15T07:44:14;97453.63;;;1.91;60.83
54329;BME280;40710;51.120;13.136;2024-01-15T07:46:39;97439.16;;;1.87;60.61
54329;BME280;40710;51.120;13.136;2024-01-15T07:49:04;97431.38;;;2.22;59.02
54329;BME280;40710;51.120;13.136;2024-01-15T07:51:29;97447.84;;;1.86;61.38
54329;BME280;40710;51.120;13.136;2024-01-15T07:53:54;97442.81;;;2.35;59.97
54329;BME280;40710;51.120;13.136;2024-01-15T07:56:22;97424.63;;;2.19;60.49
54329;BME280;40710;51.120;13.136;2024-01-15T07:58:47;97432.00;;;1.92;61.22
54329;BME280;40710;51.120;13.136;2024-01-15T08:01:11;97431.31;;;1.71;59.98
54329;BME280;40710;51.120;13.136;2024-01-15T08:03:36;97424.69;;;1.83;60.16
54329;BME280;40710;51.120;13.136;2024-01-15T08:06:00;97422.56;;;1.74;61.08
54329;BME280;40710;51.120;13.136;2024-01-15T08:08:25;97432.00;;;1.38;62.02
54329;BME280;40710;51.120;13.136;2024-01-15T08:10:50;97457.78;;;1.59;60.55
54329;BME280;40710;51.120;13.136;2024-01-15T08:13:15;97428.19;;;1.82;61.39
54329;BME280;40710;51.120;13.136;2024-01-15T08:15:40;97409.56;;;1.39;61.26
54329;BME280;40710;51.120;13.136;2024-01-15T08:18:04;97421.78;;;2.06;60.00
54329;BME280;40710;51.120;13.136;2024-01-15T08:20:29;97422.53;;;1.56;60.86
54329;BME280;40710;51.120;13.136;2024-01-15T08:22:54;97441.47;;;1.93;60.38
54329;BME280;40710;51.120;13.136;2024-01-15T08:25:18;97456.41;;;2.40;61.05
54329;BME280;40710;51.120;13.136;2024-01-15T08:27:43;97435.09;;;2.84;58.46
54329;BME280;40710;51.120;13.136;2024-01-15T08:30:08;97444.84;;;3.29;58.04
54329;BME280;40710;51.120;13.136;2024-01-15T08:32:32;97435.72;;;3.21;57.95
54329;BME280;40710;51.120;13.136;2024-01-15T08:34:57;97437.69;;;2.51;58.65
54329;BME280;40710;51.120;13.136;2024-01-15T08:37:21;97445.13;;;2.91;57.89
54329;BME280;40710;51.120;13.136;2024-01-15T08:39:46;97437.94;;;1.94;58.95
54329;BME280;40710;51.120;13.136;2024-01-15T08:42:11;97439.31;;;2.01;59.76
54329;BME280;40710;51.120;13.136;2024-01-15T08:44:35;97450.31;;;1.53;60.54
54329;BME280;40710;51.120;13.136;2024-01-15T08:47:00;97448.41;;;2.61;58.15
54329;BME280;40710;51.120;13.136;2024-01-15T08:49:24;97458.22;;;1.86;59.19
54329;BME280;40710;51.120;13.136;2024-01-15T08:51:49;97444.28;;;2.23;58.03
54329;BME280;40710;51.120;13.136;2024-01-15T08:54:14;97452.56;;;2.48;58.12
54329;BME280;40710;51.120;13.136;2024-01-15T08:56:38;97449.88;;;3.32;55.06
54329;BME280;40710;51.120;13.136;2024-01-15T08:59:04;97452.66;;;2.29;57.98
54329;BME280;40710;51.120;13.136;2024-01-15T09:01:28;97459.13;;;2.37;57.85
54329;BME280;40710;51.120;13.136;2024-01-15T09:03:53;97469.47;;;2.55;58.29
54329;BME280;40710;51.120;13.136;2024-01-15T09:06:18;97446.72;;;2.44;58.12
54329;BME280;40710;51.120;13.136;2024-01-15T09:08:42;97440.81;;;3.39;56.20
54329;BME280;40710;51.120;13.136;2024-01-15T09:11:07;97443.13;;;2.96;57.58
54329;BME280;40710;51.120;13.136;2024-01-15T09:13:31;97453.22;;;2.69;57.76
54329;BME280;40710;51.120;13.136;2024-01-15T09:15:58;97447.13;;;2.86;56.95
54329;BME280;40710;51.120;13.136;2024-01-15T09:18:22;97432.28;;;2.72;56.63
54329;BME280;40710;51.120;13.136;2024-01-15T09:20:47;97438.75;;;2.80;57.14
54329;BME280;40710;51.120;13.136;2024-01-15T09:23:11;97427.72;;;4.03;54.41
54329;BME280;40710;51.120;13.136;2024-01-15T09:25:36;97445.03;;;4.77;52.51
54329;BME280;40710;51.120;13.136;2024-01-15T09:28:01;97424.66;;;4.84;52.45
54329;BME280;40710;51.120;13.136;2024-01-15T09:30:25;97438.81;;;3.44;53.86
54329;BME280;40710;51.120;13.136;2024-01-15T09:32:50;97438.91;;;3.43;54.31
54329;BME280;40710;51.120;13.136;2024-01-15T09:35:14;97432.19;;;4.01;53.36
54329;BME280;40710;51.120;13.136;2024-01-15T09:37:39;97434.56;;;4.20;54.24
54329;BME280;40710;51.120;13.136;2024-01-15T09:40:06;97455.53;;;4.16;51.63
54329;BME280;40710;51.120;13.136;2024-01-15T09:42:31;97430.44;;;4.74;51.11
54329;BME280;40710;51.120;13.136;2024-01-15T09:44:55;97447.34;;;3.46;54.40
54329;BME280;40710;51.120;13.136;2024-01-15T09:47:20;97446.19;;;3.98;52.19
54329;BME280;40710;51.120;13.136;2024-01-15T09:49:46;97449.91;;;3.78;53.91
54329;BME280;40710;51.120;13.136;2024-01-15T09:52:11;97468.44;;;3.40;53.77
54329;BME280;40710;51.120;13.136;2024-01-15T09:54:36;97440.19;;;4.57;53.09
54329;BME280;40710;51.120;13.136;2024-01-15T09:57:01;97410.44;;;4.89;50.68
54329;BME280;40710;51.120;13.136;2024-01-15T09:59:26;97447.84;;;3.53;52.46
54329;BME280;40710;51.120;13.136;2024-01-15T10:01:53;97433.38;;;4.54;51.97
54329;BME280;40710;51.120;13.136;2024-01-15T10:04:18;97417.91;;;4.08;52.67
54329;BME280;40710;51.120;13.136;2024-01-15T10:06:46;97419.22;;;3.54;54.47
54329;BME280;40710;51.120;13.136;2024-01-15T10:09:12;97452.88;;;3.72;53.07
54329;BME280;40710;51.120;13.136;2024-01-15T10:11:38;97408.97;;;4.12;51.58
54329;BME280;40710;51.120;13.136;2024-01-15T10:14:04;97419.91;;;4.03;53.27
54329;BME280;40710;51.120;13.136;2024-01-15T10:16:29;97406.50;;;3.80;54.00
54329;BME280;40710;51.120;13.136;2024-01-15T10:18:54;97414.72;;;4.76;51.90
54329;BME280;40710;51.120;13.136;2024-01-15T10:21:18;97409.84;;;4.12;53.41
54329;BME280;40710;51.120;13.136;2024-01-15T10:23:43;97411.94;;;4.65;51.10
54329;BME280;40710;51.120;13.136;2024-01-15T10:26:08;97416.69;;;4.58;51.55
54329;BME280;40710;51.120;13.136;2024-01-15T10:28:33;97411.84;;;5.64;49.89
54329;BME280;40710;51.120;13.136;2024-01-15T10:30:59;97400.28;;;4.99;49.16
54329;BME280;40710;51.120;13.136;2024-01-15T10:33:23;97395.88;;;4.58;51.04
54329;BME280;40710;51.120;13.136;2024-01-15T10:35:56;97385.06;;;5.35;50.24
54329;BME280;40710;51.120;13.136;2024-01-15T10:38:22;97401.25;;;4.41;50.34
54329;BME280;40710;51.120;13.136;2024-01-15T10:40:46;97411.69;;;3.80;51.99
54329;BME280;40710;51.120;13.136;2024-01-15T10:43:11;97434.38;;;3.92;52.56
54329;BME280;40710;51.120;13.136;2024-01-15T10:45:35;97435.88;;;3.18;54.60
54329;BME280;40710;51.120;13.136;2024-01-15T10:48:00;97423.41;;;3.41;54.91
54329;BME280;40710;51.120;13.136;2024-01-15T10:50:26;97442.47;;;3.40;54.96
54329;BME280;40710;51.120;13.136;2024-01-15T10:52:52;97428.25;;;3.47;54.52
54329;BME280;40710;51.120;13.136;2024-01-15T10:55:17;97444.63;;;3.79;54.10
54329;BME280;40710;51.120;13.136;2024-01-15T10:57:44;97447.78;;;3.54;54.81
54329;BME280;40710;51.120;13.136;2024-01-15T11:00:10;97452.31;;;3.35;54.74
54329;BME280;40710;51.120;13.136;2024-01-15T11:02:39;97448.13;;;4.25;53.38
54329;BME280;40710;51.120;13.136;2024-01-15T11:05:04;97453.22;;;3.34;55.06
54329;BME280;40710;51.120;13.136;2024-01-15T11:07:30;97470.56;;;3.49;54.24
54329;BME280;40710;51.120;13.136;2024-01-15T11:09:55;97434.22;;;3.33;54.54
54329;BME280;40710;51.120;13.136;2024-01-15T11:12:19;97426.53;;;3.78;54.62
54329;BME280;40710;51.120;13.136;2024-01-15T11:14:48;97416.81;;;3.66;54.15
54329;BME280;40710;51.120;13.136;2024-01-15T11:17:14;97431.16;;;3.73;55.16
54329;BME280;40710;51.120;13.136;2024-01-15T11:19:50;97414.19;;;3.35;54.86
54329;BME280;40710;51.120;13.136;2024-01-15T11:24:54;97425.97;;;3.57;53.78
54329;BME280;40710;51.120;13.136;2024-01-15T11:27:39;97426.47;;;3.64;54.42
54329;BME280;40710;51.120;13.136;2024-01-15T11:30:08;97418.63;;;4.40;52.77
54329;BME280;40710;51.120;13.136;2024-01-15T11:32:33;97412.97;;;3.73;54.31
54329;BME280;40710;51.120;13.136;2024-01-15T11:34:59;97421.03;;;3.68;54.66
54329;BME280;40710;51.120;13.136;2024-01-15T11:37:27;97421.41;;;3.30;55.37
54329;BME280;40710;51.120;13.136;2024-01-15T11:39:54;97407.53;;;4.22;53.47
54329;BME280;40710;51.120;13.136;2024-01-15T11:42:20;97417.09;;;4.22;54.30
54329;BME280;40710;51.120;13.136;2024-01-15T11:44:46;97418.69;;;3.94;54.43
54329;BME280;40710;51.120;13.136;2024-01-15T11:47:12;97421.03;;;3.52;55.19
54329;BME280;40710;51.120;13.136;2024-01-15T11:50:02;97416.13;;;3.00;56.54
54329;BME280;40710;51.120;13.136;2024-01-15T11:52:33;97433.88;;;3.39;56.00
54329;BME280;40710;51.120;13.136;2024-01-15T11:55:19;97415.41;;;3.60;55.09
54329;BME280;40710;51.120;13.136;2024-01-15T11:57:53;97411.88;;;3.77;54.96
54329;BME280;40710;51.120;13.136;2024-01-15T12:00:22;97419.72;;;3.13;55.31
54329;BME280;40710;51.120;13.136;2024-01-15T12:02:48;97410.31;;;3.89;54.52
54329;BME280;40710;51.120;13.136;2024-01-15T12:05:14;97407.28;;;3.50;55.26
54329;BME280;40710;51.120;13.136;2024-01-15T12:07:40;97398.34;;;3.86;54.56
54329;BME280;40710;51.120;13.136;2024-01-15T12:10:12;97406.72;;;3.91;54.19
54329;BME280;40710;51.120;13.136;2024-01-15T12:13:05;97416.03;;;3.17;55.41
54329;BME280;40710;51.120;13.136;2024-01-15T12:15:33;97407.28;;;3.50;54.39
54329;BME280;40710;51.120;13.136;2024-01-15T12:18:00;97401.84;;;3.55;54.42
54329;BME280;40710;51.120;13.136;2024-01-15T12:20:27;97403.53;;;4.16;54.48
54329;BME280;40710;51.120;13.136;2024-01-15T12:22:52;97404.47;;;3.39;55.05
54329;BME280;40710;51.120;13.136;2024-01-15T12:25:17;97405.28;;;4.02;54.18
54329;BME280;40710;51.120;13.136;2024-01-15T12:27:42;97399.38;;;3.68;54.24
54329;BME280;40710;51.120;13.136;2024-01-15T12:30:06;97401.09;;;3.53;54.89
54329;BME280;40710;51.120;13.136;2024-01-15T12:32:31;97405.03;;;3.90;54.27
54329;BME280;40710;51.120;13.136;2024-01-15T12:34:56;97396.84;;;3.82;54.35
54329;BME280;40710;51.120;13.136;2024-01-15T12:37:21;97405.28;;;3.55;54.43
54329;BME280;40710;51.120;13.136;2024-01-15T12:39:46;97401.75;;;4.17;53.98
54329;BME280;40710;51.120;13.136;2024-01-15T12:42:11;97384.81;;;3.95;53.29
54329;BME280;40710;51.120;13.136;2024-01-15T12:44:36;97392.34;;;4.73;53.42
54329;BME280;40710;51.120;13.136;2024-01-15T12:47:02;97401.88;;;3.39;55.35
54329;BME280;40710;51.120;13.136;2024-01-15T12:49:28;97390.81;;;3.82;54.77
54329;BME280;40710;51.120;13.136;2024-01-15T12:51:53;97391.38;;;3.87;53.99